createdAt,value
2018-02-20T00:01:24.398Z,40.83
2018-02-20T00:03:51.855Z,37.37
2018-02-20T00:06:19.314Z,37.73
2018-02-20T00:08:46.767Z,41.73
2018-02-20T00:11:14.221Z,46.40
2018-02-20T00:13:41.686Z,42.30
2018-02-20T00:16:09.167Z,38.50
2018-02-20T00:18:36.615Z,37.57
2018-02-20T00:21:04.077Z,40.97
2018-02-20T00:23:31.530Z,38.87
2018-02-20T00:25:58.990Z,39.17
2018-02-20T00:28:26.476Z,37.40
2018-02-20T00:30:54.698Z,39.53
2018-02-20T00:33:22.150Z,40.90
2018-02-20T00:35:49.608Z,39.37
2018-02-20T00:38:17.061Z,40.30
2018-02-20T00:40:44.522Z,36.70
2018-02-20T00:43:11.977Z,40.53
2018-02-20T00:45:39.434Z,45.10
2018-02-20T00:48:06.896Z,40.50
2018-02-20T00:50:34.354Z,41.87
2018-02-20T00:53:01.806Z,39.50
2018-02-20T00:55:29.280Z,37.90
2018-02-20T00:57:56.730Z,41.93
2018-02-20T01:00:24.201Z,37.83
2018-02-20T01:02:51.704Z,45.67
2018-02-20T01:05:19.162Z,40.20
2018-02-20T01:07:46.623Z,40.37
2018-02-20T01:10:14.082Z,38.17
2018-02-20T01:12:41.541Z,40.10
2018-02-20T01:15:08.997Z,39.10
2018-02-20T01:17:36.457Z,41.50
2018-02-20T01:20:04.012Z,44.70
2018-02-20T01:22:31.470Z,42.97
2018-02-20T01:24:58.932Z,39.73
2018-02-20T01:27:26.394Z,41.67
2018-02-20T01:29:53.861Z,43.77
2018-02-20T01:32:21.566Z,40.87
2018-02-20T01:34:49.032Z,46.23
2018-02-20T01:37:16.492Z,42.83
2018-02-20T01:39:43.949Z,44.17
2018-02-20T01:42:11.421Z,34.83
2018-02-20T01:44:38.873Z,41.70
2018-02-20T01:47:06.345Z,40.90
2018-02-20T01:49:33.798Z,39.73
2018-02-20T01:52:01.253Z,40.43
2018-02-20T01:54:28.701Z,43.50
2018-02-20T01:56:56.173Z,43.40
2018-02-20T01:59:23.617Z,45.17
2018-02-20T02:01:51.078Z,44.47
2018-02-20T02:04:18.538Z,45.10
2018-02-20T02:06:45.989Z,45.60
2018-02-20T02:09:13.452Z,45.37
2018-02-20T02:11:40.913Z,47.00
2018-02-20T02:14:08.361Z,40.03
2018-02-20T02:16:35.822Z,43.20
2018-02-20T02:19:03.282Z,42.07
2018-02-20T02:21:30.771Z,40.67
2018-02-20T02:23:58.222Z,43.73
2018-02-20T02:26:25.681Z,40.73
2018-02-20T02:28:53.194Z,47.80
2018-02-20T02:31:20.650Z,47.13
2018-02-20T02:33:48.110Z,45.17
2018-02-20T02:36:15.558Z,49.07
2018-02-20T02:38:43.021Z,48.83
2018-02-20T02:41:10.474Z,45.93
2018-02-20T02:43:37.935Z,48.30
2018-02-20T02:46:05.390Z,42.27
2018-02-20T02:48:32.846Z,45.73
2018-02-20T02:51:01.117Z,49.03
2018-02-20T02:53:28.593Z,44.57
2018-02-20T02:55:56.050Z,46.30
2018-02-20T02:58:23.513Z,42.37
2018-02-20T03:00:50.986Z,44.50
2018-02-20T03:03:18.442Z,44.00
2018-02-20T03:05:45.898Z,46.93
2018-02-20T03:08:13.385Z,45.10
2018-02-20T03:10:40.837Z,44.73
2018-02-20T03:13:08.293Z,45.13
2018-02-20T03:15:35.744Z,43.40
2018-02-20T03:18:03.201Z,45.50
2018-02-20T03:20:30.649Z,46.03
2018-02-20T03:22:58.106Z,45.20
2018-02-20T03:25:25.557Z,43.40
2018-02-20T03:27:53.018Z,51.33
2018-02-20T03:30:20.477Z,44.93
2018-02-20T03:32:47.941Z,45.07
2018-02-20T03:35:15.398Z,44.20
2018-02-20T03:37:42.862Z,48.33
2018-02-20T03:40:10.397Z,45.73
2018-02-20T03:42:37.869Z,51.93
2018-02-20T03:45:05.322Z,44.47
2018-02-20T03:47:32.804Z,40.83
2018-02-20T03:50:01.018Z,42.63
2018-02-20T03:52:28.482Z,43.03
2018-02-20T03:54:55.938Z,47.00
2018-02-20T03:57:23.391Z,48.10
2018-02-20T03:59:50.854Z,42.93
2018-02-20T04:02:18.306Z,46.50
2018-02-20T04:04:45.774Z,45.97
2018-02-20T04:07:13.229Z,45.87
2018-02-20T04:09:40.697Z,45.80
2018-02-20T04:12:08.931Z,44.50
2018-02-20T04:14:36.388Z,41.23
2018-02-20T04:17:03.862Z,43.90
2018-02-20T04:19:31.337Z,43.47
2018-02-20T04:21:58.797Z,42.73
2018-02-20T04:24:26.328Z,45.37
2018-02-20T04:26:53.782Z,41.93
2018-02-20T04:29:21.249Z,42.17
2018-02-20T04:31:49.553Z,43.00
2018-02-20T04:34:17.023Z,39.50
2018-02-20T04:36:44.534Z,39.63
2018-02-20T04:39:11.990Z,42.57
2018-02-20T04:41:39.446Z,40.70
2018-02-20T04:44:06.914Z,44.20
2018-02-20T04:46:34.377Z,43.90
2018-02-20T04:49:01.854Z,44.00
2018-02-20T04:51:29.329Z,39.50
2018-02-20T04:53:57.571Z,42.83
2018-02-20T04:56:25.030Z,39.47
2018-02-20T04:58:52.498Z,37.80
2018-02-20T05:01:19.975Z,43.47
2018-02-20T05:03:47.427Z,42.60
2018-02-20T05:06:14.877Z,46.90
2018-02-20T05:08:42.337Z,44.97
2018-02-20T05:11:10.557Z,40.70
2018-02-20T05:13:38.029Z,41.50
2018-02-20T05:16:05.477Z,39.73
2018-02-20T05:18:32.941Z,40.63
2018-02-20T05:21:00.417Z,44.37
2018-02-20T05:23:27.886Z,41.10
2018-02-20T05:25:55.343Z,40.50
2018-02-20T05:28:22.822Z,40.67
2018-02-20T05:30:51.038Z,42.37
2018-02-20T05:33:18.505Z,39.10
2018-02-20T05:35:45.952Z,44.27
2018-02-20T05:38:13.405Z,41.57
2018-02-20T05:40:40.865Z,40.10
2018-02-20T05:43:09.318Z,42.40
2018-02-20T05:45:36.773Z,41.13
2018-02-20T05:48:04.225Z,43.77
2018-02-20T05:50:31.686Z,42.83
2018-02-20T05:52:59.132Z,41.67
2018-02-20T05:55:26.585Z,40.90
2018-02-20T05:57:54.079Z,39.27
2018-02-20T06:00:21.491Z,39.80
2018-02-20T06:02:49.712Z,42.53
2018-02-20T06:05:17.189Z,44.03
2018-02-20T06:07:44.649Z,42.80
2018-02-20T06:10:12.105Z,41.87
2018-02-20T06:12:39.554Z,38.90
2018-02-20T06:15:07.033Z,40.07
2018-02-20T06:17:34.490Z,42.00
2018-02-20T06:20:01.949Z,44.07
2018-02-20T06:22:29.406Z,40.90
2018-02-20T06:24:56.857Z,41.67
2018-02-20T06:27:25.341Z,38.57
2018-02-20T06:29:52.880Z,36.17
2018-02-20T06:32:20.378Z,42.03
2018-02-20T06:34:48.597Z,39.77
2018-02-20T06:37:16.052Z,39.20
2018-02-20T06:39:43.510Z,42.03
2018-02-20T06:42:10.966Z,39.87
2018-02-20T06:44:38.426Z,41.60
2018-02-20T06:47:05.891Z,37.40
2018-02-20T06:49:34.132Z,41.07
2018-02-20T06:52:01.579Z,35.57
2018-02-20T06:54:29.029Z,37.47
2018-02-20T06:56:57.357Z,37.47
2018-02-20T06:59:24.820Z,34.97
2018-02-20T07:01:52.269Z,33.30
2018-02-20T07:04:19.746Z,33.93
2018-02-20T07:06:47.201Z,34.13
2018-02-20T07:09:14.647Z,37.60
2018-02-20T07:11:42.102Z,40.60
2018-02-20T07:14:09.553Z,35.33
2018-02-20T07:16:37.011Z,41.40
2018-02-20T07:19:04.496Z,39.90
2018-02-20T07:21:31.981Z,43.23
2018-02-20T07:23:59.430Z,42.20
2018-02-20T07:26:27.658Z,45.50
2018-02-20T07:28:55.110Z,38.27
2018-02-20T07:31:22.574Z,39.23
2018-02-20T07:33:50.024Z,36.23
2018-02-20T07:36:17.481Z,37.73
2018-02-20T07:38:44.942Z,36.13
2018-02-20T07:41:13.171Z,40.17
2018-02-20T07:43:40.617Z,37.77
2018-02-20T07:46:08.841Z,39.43
2018-02-20T07:48:36.296Z,38.43
2018-02-20T07:51:03.765Z,38.73
2018-02-20T07:53:31.234Z,41.20
2018-02-20T07:55:58.706Z,39.03
2018-02-20T07:58:26.149Z,47.17
2018-02-20T08:00:53.613Z,46.63
2018-02-20T08:03:21.064Z,45.37
2018-02-20T08:05:48.516Z,40.27
2018-02-20T08:08:15.976Z,40.70
2018-02-20T08:10:43.468Z,43.90
2018-02-20T08:13:10.950Z,40.57
2018-02-20T08:15:38.408Z,42.20
2018-02-20T08:18:05.858Z,37.53
2018-02-20T08:20:33.318Z,39.37
2018-02-20T08:23:00.774Z,43.70
2018-02-20T08:25:28.234Z,45.13
2018-02-20T08:27:55.690Z,43.10
2018-02-20T08:30:23.151Z,42.43
2018-02-20T08:32:50.610Z,40.27
2018-02-20T08:35:18.077Z,41.23
2018-02-20T08:37:45.532Z,40.43
2018-02-20T08:40:13.010Z,38.77
2018-02-20T08:42:40.456Z,38.43
2018-02-20T08:45:07.925Z,41.30
2018-02-20T08:47:35.385Z,42.87
2018-02-20T08:50:02.860Z,39.93
2018-02-20T08:52:31.109Z,38.87
2018-02-20T08:54:58.560Z,39.70
2018-02-20T08:57:26.017Z,42.17
2018-02-20T08:59:53.482Z,43.27
2018-02-20T09:02:20.946Z,43.67
2018-02-20T09:04:48.397Z,40.30
2018-02-20T09:07:15.864Z,39.63
2018-02-20T09:09:43.322Z,37.30
2018-02-20T09:12:10.782Z,38.83
2018-02-20T09:14:38.234Z,37.83
2018-02-20T09:17:05.693Z,36.43
2018-02-20T09:19:33.913Z,39.70
2018-02-20T09:22:01.378Z,38.70
2018-02-20T09:24:28.829Z,40.10
2018-02-20T09:26:56.283Z,40.67
2018-02-20T09:29:23.729Z,39.60
2018-02-20T09:31:51.532Z,43.13
2018-02-20T09:34:18.985Z,40.53
2018-02-20T09:36:46.445Z,38.30
2018-02-20T09:39:13.905Z,38.43
2018-02-20T09:41:41.360Z,40.13
2018-02-20T09:44:09.578Z,40.73
2018-02-20T09:46:38.505Z,39.20
2018-02-20T09:49:05.953Z,42.43
2018-02-20T09:51:33.410Z,41.60
2018-02-20T09:54:00.870Z,40.63
2018-02-20T09:56:28.333Z,42.20
2018-02-20T09:58:55.813Z,37.60
2018-02-20T10:01:23.278Z,40.63
2018-02-20T10:03:50.734Z,40.13
2018-02-20T10:06:18.190Z,37.13
2018-02-20T10:08:45.643Z,39.57
2018-02-20T10:11:13.094Z,42.50
2018-02-20T10:13:40.618Z,40.97
2018-02-20T10:16:08.059Z,43.47
2018-02-20T10:18:35.631Z,46.60
2018-02-20T10:21:03.081Z,40.57
2018-02-20T10:23:30.650Z,40.70
2018-02-20T10:25:58.099Z,43.20
2018-02-20T10:28:25.565Z,40.73
2018-02-20T10:30:53.048Z,42.03
2018-02-20T10:33:20.520Z,38.27
2018-02-20T10:35:48.034Z,36.97
2018-02-20T10:38:15.591Z,35.67
2018-02-20T10:40:43.042Z,39.80
2018-02-20T10:43:10.497Z,36.33
2018-02-20T10:45:37.944Z,33.90
2018-02-20T10:48:05.400Z,23.83
2018-02-20T10:50:32.852Z,26.70
2018-02-20T10:53:00.305Z,31.63
2018-02-20T10:55:28.530Z,29.50
2018-02-20T10:57:56.003Z,27.97
2018-02-20T11:00:23.462Z,32.23
2018-02-20T11:02:50.923Z,30.70
2018-02-20T11:05:18.418Z,27.37
2018-02-20T11:07:45.941Z,33.43
2018-02-20T11:10:13.414Z,28.53
2018-02-20T11:12:41.646Z,26.40
2018-02-20T11:15:09.110Z,33.27
2018-02-20T11:17:36.619Z,27.23
2018-02-20T11:20:04.090Z,24.30
2018-02-20T11:22:31.553Z,28.87
2018-02-20T11:24:59.417Z,26.60
2018-02-20T11:27:26.876Z,27.30
2018-02-20T11:29:54.328Z,37.73
2018-02-20T11:32:21.799Z,32.80
2018-02-20T11:34:49.244Z,30.20
2018-02-20T11:37:16.701Z,35.27
2018-02-20T11:39:44.165Z,38.70
2018-02-20T11:42:11.625Z,35.83
2018-02-20T11:44:39.084Z,34.83
2018-02-20T11:47:06.545Z,28.63
2018-02-20T11:49:34.006Z,24.73
2018-02-20T11:52:01.466Z,26.77
2018-02-20T11:54:28.921Z,31.17
2018-02-20T11:56:57.166Z,27.50
2018-02-20T11:59:24.622Z,23.13
2018-02-20T12:01:52.073Z,24.17
2018-02-20T12:04:19.533Z,31.53
2018-02-20T12:06:46.986Z,26.03
2018-02-20T12:09:14.445Z,31.27
2018-02-20T12:11:41.897Z,29.33
2018-02-20T12:14:09.359Z,32.43
2018-02-20T12:16:36.842Z,33.00
2018-02-20T12:19:04.274Z,31.63
2018-02-20T12:21:31.724Z,33.03
2018-02-20T12:23:59.185Z,34.17
2018-02-20T12:26:26.638Z,30.50
2018-02-20T12:28:54.098Z,28.80
2018-02-20T12:31:21.550Z,29.87
2018-02-20T12:33:49.006Z,32.37
2018-02-20T12:36:16.474Z,31.97
2018-02-20T12:38:43.930Z,32.10
2018-02-20T12:41:11.381Z,30.97
2018-02-20T12:43:38.860Z,35.93
2018-02-20T12:46:06.307Z,35.77
2018-02-20T12:48:33.773Z,41.20
2018-02-20T12:51:01.225Z,39.00
2018-02-20T12:53:28.718Z,39.07
2018-02-20T12:55:56.149Z,39.23
2018-02-20T12:58:23.606Z,41.60
2018-02-20T13:00:51.061Z,39.43
2018-02-20T13:03:19.404Z,44.30
2018-02-20T13:05:47.622Z,42.50
2018-02-20T13:08:15.077Z,43.30
2018-02-20T13:10:42.524Z,40.10
2018-02-20T13:13:10.001Z,41.30
2018-02-20T13:15:37.460Z,40.67
2018-02-20T13:18:04.920Z,41.60
2018-02-20T13:20:32.377Z,45.67
2018-02-20T13:22:59.830Z,38.13
2018-02-20T13:25:27.300Z,41.33
2018-02-20T13:27:54.747Z,43.50
2018-02-20T13:30:22.205Z,43.13
2018-02-20T13:32:49.653Z,43.30
2018-02-20T13:35:17.109Z,41.23
2018-02-20T13:37:44.566Z,41.17
2018-02-20T13:40:12.022Z,40.77
2018-02-20T13:42:39.476Z,41.40
2018-02-20T13:45:06.936Z,46.03
2018-02-20T13:47:34.393Z,44.63
2018-02-20T13:50:01.845Z,40.60
2018-02-20T13:52:29.306Z,41.90
2018-02-20T13:54:56.761Z,44.90
2018-02-20T13:57:24.213Z,36.53
2018-02-20T13:59:51.669Z,36.90
2018-02-20T14:02:19.125Z,39.57
2018-02-20T14:04:46.623Z,46.80
2018-02-20T14:07:14.046Z,43.47
2018-02-20T14:09:41.505Z,40.37
2018-02-20T14:12:08.952Z,42.97
2018-02-20T14:14:36.408Z,37.00
2018-02-20T14:17:03.877Z,36.23
2018-02-20T14:19:31.349Z,39.23
2018-02-20T14:21:58.789Z,36.50
2018-02-20T14:24:26.278Z,41.70
2018-02-20T14:26:54.505Z,38.10
2018-02-20T14:29:21.967Z,39.00
2018-02-20T14:31:49.425Z,36.03
2018-02-20T14:34:16.887Z,36.80
2018-02-20T14:36:44.344Z,33.70
2018-02-20T14:39:11.803Z,37.70
2018-02-20T14:41:39.969Z,38.23
2018-02-20T14:44:07.437Z,33.40
2018-02-20T14:46:34.889Z,39.30
2018-02-20T14:49:02.341Z,39.63
2018-02-20T14:51:29.801Z,32.70
2018-02-20T14:53:57.254Z,33.17
2018-02-20T14:56:24.740Z,29.10
2018-02-20T14:58:52.185Z,29.77
2018-02-20T15:01:21.233Z,31.63
2018-02-20T15:03:48.685Z,29.67
2018-02-20T15:06:16.141Z,32.77
2018-02-20T15:08:43.590Z,32.30
2018-02-20T15:11:11.053Z,36.73
2018-02-20T15:13:38.518Z,30.37
2018-02-20T15:16:05.969Z,37.43
2018-02-20T15:18:33.429Z,34.63
2018-02-20T15:21:00.898Z,31.20
2018-02-20T15:23:28.350Z,31.40
2018-02-20T15:25:55.810Z,32.43
2018-02-20T15:28:23.260Z,32.10
2018-02-20T15:30:50.721Z,33.73
2018-02-20T15:33:18.178Z,31.33
2018-02-20T15:35:45.629Z,32.10
2018-02-20T15:38:13.081Z,31.53
2018-02-20T15:40:40.545Z,35.40
2018-02-20T15:43:07.997Z,37.77
2018-02-20T15:45:35.458Z,32.33
2018-02-20T15:48:02.917Z,33.23
2018-02-20T15:50:30.375Z,31.50
2018-02-20T15:52:57.821Z,29.80
2018-02-20T15:55:25.282Z,34.23
2018-02-20T15:57:52.737Z,33.57
2018-02-20T16:00:20.202Z,40.83
2018-02-20T16:05:22.298Z,39.37
2018-02-20T16:07:49.738Z,35.37
2018-02-20T16:10:17.973Z,33.90
2018-02-20T16:12:46.185Z,31.20
2018-02-20T16:15:13.646Z,35.67
2018-02-20T16:17:41.097Z,35.50
2018-02-20T16:20:08.555Z,35.63
2018-02-20T16:22:36.005Z,36.40
2018-02-20T16:25:03.465Z,36.57
2018-02-20T16:27:30.931Z,38.23
2018-02-20T16:29:58.398Z,39.13
2018-02-20T16:32:25.852Z,30.87
2018-02-20T16:34:53.305Z,32.90
2018-02-20T16:37:20.765Z,29.13
2018-02-20T16:39:48.227Z,32.30
2018-02-20T16:42:15.742Z,35.47
2018-02-20T16:44:43.193Z,30.73
2018-02-20T16:47:10.661Z,32.17
2018-02-20T16:49:38.106Z,33.83
2018-02-20T16:52:05.781Z,34.43
2018-02-20T16:54:33.255Z,35.40
2018-02-20T16:57:00.742Z,31.20
2018-02-20T16:59:28.978Z,31.40
2018-02-20T17:01:57.539Z,34.90
2018-02-20T17:04:24.985Z,30.77
2018-02-20T17:06:52.482Z,35.27
2018-02-20T17:09:19.941Z,37.20
2018-02-20T17:11:47.404Z,33.93
2018-02-20T17:14:14.853Z,35.63
2018-02-20T17:16:42.322Z,36.90
2018-02-20T17:19:09.774Z,35.83
2018-02-20T17:21:37.316Z,32.50
2018-02-20T17:24:04.677Z,37.27
2018-02-20T17:26:32.145Z,33.70
2018-02-20T17:29:00.371Z,35.93
2018-02-20T17:31:28.593Z,34.17
2018-02-20T17:33:56.433Z,40.77
2018-02-20T17:36:23.886Z,36.57
2018-02-20T17:38:51.342Z,38.77
2018-02-20T17:41:18.808Z,41.97
2018-02-20T17:43:46.293Z,39.20
2018-02-20T17:46:13.757Z,36.93
2018-02-20T17:48:41.209Z,37.37
2018-02-20T17:51:08.671Z,39.70
2018-02-20T17:53:36.138Z,38.37
2018-02-20T17:56:03.594Z,36.83
2018-02-20T17:58:31.061Z,37.93
2018-02-20T18:00:58.524Z,36.50
2018-02-20T18:03:26.746Z,34.73
2018-02-20T18:05:54.214Z,40.30
2018-02-20T18:08:21.678Z,44.93
2018-02-20T18:10:49.122Z,42.47
2018-02-20T18:13:17.347Z,40.53
2018-02-20T18:15:45.578Z,41.20
2018-02-20T18:18:13.042Z,40.90
2018-02-20T18:20:40.505Z,40.47
2018-02-20T18:23:07.961Z,39.13
2018-02-20T18:25:35.478Z,38.47
2018-02-20T18:28:02.926Z,41.77
2018-02-20T18:30:30.382Z,42.50
2018-02-20T18:32:57.839Z,40.13
2018-02-20T18:35:25.293Z,42.40
2018-02-20T18:37:52.759Z,44.53
2018-02-20T18:40:20.216Z,40.33
2018-02-20T18:42:47.677Z,42.57
2018-02-20T18:45:15.135Z,41.07
2018-02-20T18:47:42.588Z,38.43
2018-02-20T18:50:10.049Z,40.57
2018-02-20T18:52:37.517Z,45.07
2018-02-20T18:55:04.961Z,40.07
2018-02-20T18:57:32.418Z,41.47
2018-02-20T18:59:59.877Z,39.07
2018-02-20T19:02:27.346Z,43.33
2018-02-20T19:04:54.809Z,42.90
2018-02-20T19:07:22.266Z,42.60
2018-02-20T19:09:49.736Z,40.37
2018-02-20T19:12:17.193Z,40.70
2018-02-20T19:14:44.654Z,41.10
2018-02-20T19:17:12.109Z,41.80
2018-02-20T19:19:39.569Z,38.43
2018-02-20T19:22:07.814Z,43.37
2018-02-20T19:24:35.311Z,42.37
2018-02-20T19:27:02.761Z,44.67
2018-02-20T19:29:30.226Z,41.93
2018-02-20T19:31:57.694Z,39.03
2018-02-20T19:34:26.000Z,42.63
2018-02-20T19:36:53.457Z,53.90
2018-02-20T19:39:21.429Z,42.00
2018-02-20T19:41:48.889Z,49.57
2018-02-20T19:44:16.346Z,45.97
2018-02-20T19:46:43.802Z,47.23
2018-02-20T19:49:11.274Z,48.07
2018-02-20T19:51:38.769Z,51.23
2018-02-20T19:54:06.243Z,50.87
2018-02-20T19:56:34.460Z,45.87
2018-02-20T19:59:01.926Z,44.80
2018-02-20T20:01:29.678Z,53.17
2018-02-20T20:03:57.129Z,44.53
2018-02-20T20:06:24.579Z,47.80
2018-02-20T20:08:52.061Z,46.70
2018-02-20T20:11:20.002Z,46.27
2018-02-20T20:13:47.457Z,44.27
2018-02-20T20:16:14.940Z,47.50
2018-02-20T20:18:42.418Z,45.60
2018-02-20T20:21:09.877Z,48.87
2018-02-20T20:23:37.361Z,45.67
2018-02-20T20:26:04.822Z,53.60
2018-02-20T20:28:32.293Z,45.33
2018-02-20T20:30:59.745Z,48.27
2018-02-20T20:33:27.215Z,51.43
2018-02-20T20:35:54.674Z,48.23
2018-02-20T20:38:22.136Z,48.60
2018-02-20T20:40:49.586Z,44.37
2018-02-20T20:43:17.041Z,50.00
2018-02-20T20:45:44.501Z,50.27
2018-02-20T20:48:11.965Z,47.67
2018-02-20T20:50:39.423Z,51.20
2018-02-20T20:53:07.897Z,50.33
2018-02-20T20:55:35.357Z,48.80
2018-02-20T20:58:02.840Z,51.93
2018-02-20T21:00:30.301Z,48.17
2018-02-20T21:02:57.774Z,50.97
2018-02-20T21:05:25.282Z,46.43
2018-02-20T21:07:52.739Z,49.93
2018-02-20T21:10:20.191Z,44.43
2018-02-20T21:12:47.652Z,46.80
2018-02-20T21:15:15.120Z,47.17
2018-02-20T21:17:42.569Z,49.13
2018-02-20T21:20:10.035Z,43.70
2018-02-20T21:22:37.492Z,46.70
2018-02-20T21:25:04.953Z,47.90
2018-02-20T21:27:32.425Z,50.37
2018-02-20T21:29:59.893Z,51.07
2018-02-20T21:32:27.357Z,47.00
2018-02-20T21:34:54.813Z,54.80
2018-02-20T21:37:23.050Z,50.97
2018-02-20T21:39:50.523Z,46.43
2018-02-20T21:42:17.986Z,50.10
2018-02-20T21:44:45.442Z,51.73
2018-02-20T21:47:12.898Z,46.83
2018-02-20T21:49:40.355Z,49.53
2018-02-20T21:52:07.817Z,50.10
2018-02-20T21:54:35.290Z,55.63
2018-02-20T21:57:03.508Z,57.20
2018-02-20T21:59:31.057Z,54.43
2018-02-20T22:01:58.506Z,60.37
2018-02-20T22:04:26.176Z,112.77
2018-02-20T22:06:53.621Z,46.83
2018-02-20T22:09:21.098Z,47.90
2018-02-20T22:11:48.696Z,53.57
2018-02-20T22:14:16.138Z,49.30
2018-02-20T22:16:43.586Z,51.27
2018-02-20T22:19:11.059Z,50.47
2018-02-20T22:21:38.879Z,48.20
2018-02-20T22:24:06.338Z,49.20
2018-02-20T22:26:33.821Z,55.10
2018-02-20T22:29:01.282Z,49.83
2018-02-20T22:31:28.744Z,55.23
2018-02-20T22:33:56.225Z,51.90
2018-02-20T22:36:23.677Z,49.37
2018-02-20T22:38:51.137Z,51.60
2018-02-20T22:41:18.593Z,47.27
2018-02-20T22:43:46.053Z,50.47
2018-02-20T22:46:13.514Z,51.60
2018-02-20T22:48:41.747Z,45.80
2018-02-20T22:51:09.201Z,51.47
2018-02-20T22:53:36.674Z,48.80
2018-02-20T22:56:04.134Z,51.30
2018-02-20T22:58:31.589Z,46.50
2018-02-20T23:00:59.044Z,45.70
2018-02-20T23:03:26.505Z,46.33
2018-02-20T23:05:53.990Z,51.37
2018-02-20T23:08:22.225Z,45.60
2018-02-20T23:10:49.686Z,47.93
2018-02-20T23:13:17.140Z,46.17
2018-02-20T23:15:44.597Z,48.93
2018-02-20T23:18:12.054Z,49.77
2018-02-20T23:20:39.513Z,44.30
2018-02-20T23:23:06.974Z,47.60
2018-02-20T23:25:34.442Z,50.23
2018-02-20T23:28:01.939Z,48.70
2018-02-20T23:30:29.775Z,46.53
2018-02-20T23:32:57.225Z,46.20
2018-02-20T23:35:24.687Z,46.33
2018-02-20T23:37:52.145Z,46.70
2018-02-20T23:40:20.381Z,47.03
2018-02-20T23:42:47.837Z,47.23
2018-02-20T23:45:15.324Z,48.80
2018-02-20T23:47:42.780Z,48.53
2018-02-20T23:50:10.249Z,46.27
2018-02-20T23:52:37.717Z,49.67
2018-02-20T23:55:05.942Z,45.03
2018-02-20T23:57:33.397Z,48.10
